»·PEaware :: N6880W KRIV-KSNA

N6880W :: KRIV-KSNA

FLIGHT INFORMATION

Flight Status: Arrived
Operator: Privately registered:
United States
More flights under this callsign
Pilot: Alexander F. (26956)
Aircraft: PIPER PA-28R-201 ARROW
(P28R)
More flights by this aircraft type
Origin: KRIV March ARB
United States
Destination: KSNA John Wayne-Orange Co
United States
More flights between these airports :: More routes between these airports
Route: +PDZ PDZ270/013 RNDAL V363 POXKU V8 SLI+
File this flight plan on PilotEdge
Remarks: TEC route ONTP10
Altitude:
(Current/Filed)
4,000ft
Speed:
(Current/Filed)
140kts
Departed: 29-Nov-20 09:47 PM
Arrived: 29-Nov-20 10:38 PM
Distance/Time
Traveled:
33nm/0:51
Distance/Time
To Go:
Arrived

Flight Plot

Page will automatically refresh every two minutes.

Flight plan parsing failed; only flown route is shown


Map Options




Map Legend


Flown Route
Filed Route
Departure Airport
Arrival Airport
Navaid (VOR, NDB)
Fix

Horizontal Profiles

Position Reports

Time Latitude Longitude Heading Altitude Ground
Speed
29-Nov-20 21:30 33.871106 -117.246904 61 1484ft 0kts
29-Nov-20 21:31 33.871106 -117.246904 61 1484ft 0kts
29-Nov-20 21:32 33.871106 -117.246904 61 1484ft 0kts
29-Nov-20 21:33 33.871106 -117.246904 61 1484ft 0kts
29-Nov-20 21:34 33.871106 -117.246904 61 1484ft 0kts
29-Nov-20 21:35 33.871106 -117.246904 61 1484ft 0kts
29-Nov-20 21:36 33.871106 -117.246904 61 1484ft 0kts
29-Nov-20 21:37 33.871106 -117.246904 61 1484ft 0kts
29-Nov-20 21:38 33.871106 -117.246904 61 1484ft 0kts
29-Nov-20 21:39 33.871106 -117.246904 61 1484ft 0kts
29-Nov-20 21:40 33.871106 -117.246904 61 1484ft 0kts
29-Nov-20 21:41 33.870953 -117.247012 207 1484ft 8kts
29-Nov-20 21:42 33.866778 -117.246498 162 1483ft 13kts
29-Nov-20 21:43 33.865554 -117.247232 235 1483ft 0kts
29-Nov-20 21:44 33.865554 -117.247232 235 1483ft 0kts
29-Nov-20 21:45 33.865531 -117.247271 235 1483ft 5kts
29-Nov-20 21:46 33.874546 -117.255441 329 1682ft 85kts
29-Nov-20 21:47 33.897124 -117.271630 331 2898ft 102kts
29-Nov-20 21:48 33.921783 -117.287957 332 4033ft 103kts
29-Nov-20 21:49 33.946011 -117.309590 281 4495ft 125kts
29-Nov-20 21:50 33.942829 -117.352631 268 4367ft 128kts
29-Nov-20 21:51 33.940702 -117.395400 261 4416ft 132kts
29-Nov-20 21:52 33.931641 -117.438193 261 4397ft 132kts
29-Nov-20 21:53 33.924104 -117.481280 257 4384ft 131kts
29-Nov-20 21:54 33.920231 -117.524675 267 4408ft 129kts
29-Nov-20 21:55 33.925846 -117.567093 286 4340ft 132kts
29-Nov-20 21:56 33.935405 -117.611587 284 3956ft 134kts
29-Nov-20 21:57 33.943981 -117.653379 287 4021ft 127kts
29-Nov-20 21:58 33.953883 -117.694551 286 4062ft 128kts
29-Nov-20 21:59 33.963273 -117.736315 285 4098ft 128kts
29-Nov-20 22:00 33.970429 -117.777455 248 4153ft 126kts
29-Nov-20 22:01 33.936715 -117.785364 180 4066ft 130kts
29-Nov-20 22:02 33.900606 -117.783283 177 4041ft 129kts
29-Nov-20 22:03 33.864517 -117.781387 178 3989ft 131kts
29-Nov-20 22:04 33.842745 -117.805882 266 3954ft 130kts
29-Nov-20 22:05 33.836427 -117.847806 260 4006ft 128kts
29-Nov-20 22:06 33.828011 -117.889712 253 4027ft 129kts
29-Nov-20 22:07 33.817202 -117.930997 253 4056ft 129kts
29-Nov-20 22:08 33.806320 -117.972913 253 3987ft 131kts
29-Nov-20 22:09 33.795467 -118.014713 253 3959ft 130kts
29-Nov-20 22:10 33.786696 -118.048444 253 3935ft 130kts
29-Nov-20 22:11 33.786696 -118.048444 253 3935ft 130kts
29-Nov-20 22:12 33.785067 -118.054724 253 3935ft 130kts
29-Nov-20 22:13 33.776776 -118.087943 269 3949ft 127kts
29-Nov-20 22:14 33.775084 -118.116600 183 3934ft 133kts
29-Nov-20 22:15 33.766216 -118.082660 75 4084ft 126kts
29-Nov-20 22:16 33.774807 -118.040356 76 3998ft 133kts
29-Nov-20 22:17 33.783368 -117.998395 75 3969ft 126kts
29-Nov-20 22:18 33.791278 -117.958391 75 3977ft 124kts
29-Nov-20 22:19 33.799298 -117.918013 76 3982ft 124kts
29-Nov-20 22:21 33.807270 -117.877606 76 3979ft 124kts
29-Nov-20 22:22 33.814997 -117.836868 73 3945ft 125kts
29-Nov-20 22:23 33.842446 -117.813905 28 3975ft 121kts
29-Nov-20 22:24 33.872017 -117.793988 28 3996ft 122kts
29-Nov-20 22:25 33.901182 -117.772991 52 3968ft 125kts
29-Nov-20 22:26 33.901801 -117.732240 90 4035ft 123kts
29-Nov-20 22:27 33.910892 -117.695694 22 4049ft 121kts
29-Nov-20 22:28 33.917629 -117.719580 218 4012ft 126kts
29-Nov-20 22:29 33.886423 -117.737432 196 3824ft 124kts
29-Nov-20 22:30 33.855228 -117.755799 205 3182ft 125kts
29-Nov-20 22:31 33.825636 -117.773939 212 2740ft 117kts
29-Nov-20 22:32 33.798658 -117.792238 206 2650ft 115kts
29-Nov-20 22:33 33.769323 -117.810227 210 1907ft 120kts
29-Nov-20 22:34 33.742022 -117.826553 208 1417ft 102kts
29-Nov-20 22:35 33.718315 -117.841784 206 913ft 95kts
29-Nov-20 22:36 33.695495 -117.856277 205 399ft 81kts
29-Nov-20 22:36 33.679921 -117.866152 205 71ft 69kts
29-Nov-20 22:38 33.674410 -117.868468 150 59ft 11kts
29-Nov-20 22:38 33.672027 -117.868180 206 59ft 14kts
29-Nov-20 22:40 33.668971 -117.871086 220 59ft 16kts
29-Nov-20 22:41 33.668112 -117.871063 217 59ft 0kts
29-Nov-20 22:41 33.668112 -117.871063 217 59ft 0kts

Navigation Log

Ident Type
Flight plan parsing failed, navigation log unavailable